createdAt,value
2022-09-30T00:03:11.358Z,12.27
2022-09-30T00:08:34.526Z,12.17
2022-09-30T00:13:59.646Z,12.06
2022-09-30T00:19:22.767Z,12.01
2022-09-30T00:24:46.533Z,11.99
2022-09-30T00:30:11.959Z,11.89
2022-09-30T00:35:35.097Z,11.80
2022-09-30T00:40:59.648Z,11.80
2022-09-30T00:46:29.727Z,11.75
2022-09-30T00:51:56.371Z,11.69
2022-09-30T00:57:19.552Z,11.66
2022-09-30T01:02:44.000Z,11.57
2022-09-30T01:08:10.566Z,11.52
2022-09-30T01:13:35.566Z,11.52
2022-09-30T01:19:17.605Z,11.41
2022-09-30T01:25:25.286Z,11.36
2022-09-30T01:31:04.434Z,11.30
2022-09-30T01:36:39.619Z,11.25
2022-09-30T01:42:10.053Z,11.19
2022-09-30T01:47:38.258Z,11.15
2022-09-30T01:53:07.412Z,11.08
2022-09-30T01:58:37.359Z,10.93
2022-09-30T02:04:06.293Z,10.90
2022-09-30T02:09:31.555Z,10.84
2022-09-30T02:15:00.390Z,10.83
2022-09-30T02:20:27.491Z,10.88
2022-09-30T02:25:57.154Z,10.86
2022-09-30T02:31:24.000Z,10.88
2022-09-30T02:36:52.847Z,10.77
2022-09-30T02:42:20.446Z,10.77
2022-09-30T02:47:53.216Z,10.65
2022-09-30T02:53:23.175Z,10.65
2022-09-30T02:58:47.092Z,10.63
2022-09-30T03:04:12.280Z,10.53
2022-09-30T03:09:37.190Z,10.60
2022-09-30T03:15:24.056Z,10.64
2022-09-30T03:20:53.761Z,10.48
2022-09-30T03:26:27.410Z,10.24
2022-09-30T03:31:58.954Z,10.32
2022-09-30T03:37:28.197Z,10.32
2022-09-30T03:42:56.780Z,10.30
2022-09-30T03:48:21.977Z,10.20
2022-09-30T03:53:46.594Z,10.21
2022-09-30T03:59:13.446Z,10.15
2022-09-30T04:04:36.594Z,10.09
2022-09-30T04:09:59.665Z,10.06
2022-09-30T04:15:24.131Z,10.04
2022-09-30T04:20:47.169Z,10.04
2022-09-30T04:26:13.227Z,10.01
2022-09-30T04:31:37.765Z,9.89
2022-09-30T04:37:00.815Z,9.82
2022-09-30T04:42:24.349Z,9.86
2022-09-30T04:47:49.008Z,9.82
2022-09-30T04:53:14.629Z,9.83
2022-09-30T04:58:37.780Z,9.78
2022-09-30T05:04:02.640Z,9.76
2022-09-30T05:09:25.890Z,9.79
2022-09-30T05:14:49.146Z,9.77
2022-09-30T05:20:16.592Z,9.81
2022-09-30T05:25:41.985Z,9.81
2022-09-30T05:31:06.265Z,9.78
2022-09-30T05:36:30.833Z,9.85
2022-09-30T05:41:53.886Z,9.86
2022-09-30T05:47:17.293Z,9.81
2022-09-30T05:52:41.775Z,9.78
2022-09-30T05:58:04.891Z,9.79
2022-09-30T06:03:27.980Z,9.80
2022-09-30T06:08:52.808Z,9.79
2022-09-30T06:14:18.784Z,9.83
2022-09-30T06:19:41.838Z,9.84
2022-09-30T06:25:07.490Z,10.02
2022-09-30T06:30:34.881Z,10.21
2022-09-30T06:35:58.359Z,10.37
2022-09-30T06:41:27.523Z,10.71
2022-09-30T06:46:53.836Z,10.91
2022-09-30T06:52:17.207Z,11.09
2022-09-30T06:57:43.656Z,11.34
2022-09-30T07:03:09.947Z,11.57
2022-09-30T07:08:35.091Z,11.53
2022-09-30T07:13:59.491Z,11.57
2022-09-30T07:19:22.946Z,11.56
2022-09-30T07:24:46.243Z,11.71
2022-09-30T07:30:19.261Z,11.57
2022-09-30T07:35:54.791Z,11.71
2022-09-30T07:41:19.595Z,11.71
2022-09-30T07:46:45.242Z,11.77
2022-09-30T07:52:09.065Z,11.87
2022-09-30T07:57:32.076Z,11.98
2022-09-30T08:02:58.027Z,12.02
2022-09-30T08:08:21.088Z,12.14
2022-09-30T08:13:44.180Z,12.10
2022-09-30T08:19:08.631Z,12.28
2022-09-30T08:24:31.841Z,12.16
2022-09-30T08:29:57.326Z,12.47
2022-09-30T08:35:22.769Z,12.79
2022-09-30T08:40:56.382Z,12.84
2022-09-30T08:46:27.816Z,12.92
2022-09-30T08:51:53.197Z,13.28
2022-09-30T08:57:16.222Z,13.36
2022-09-30T09:02:45.795Z,13.42
2022-09-30T09:08:17.273Z,13.39
2022-09-30T09:13:47.876Z,13.45
2022-09-30T09:19:12.672Z,13.34
2022-09-30T09:24:39.223Z,13.51
2022-09-30T09:30:07.532Z,13.74
2022-09-30T09:35:37.687Z,13.81
2022-09-30T09:41:11.025Z,13.86
2022-09-30T09:46:38.925Z,14.02
2022-09-30T09:52:16.896Z,14.26
2022-09-30T09:57:41.661Z,14.58
2022-09-30T10:03:06.454Z,15.01
2022-09-30T10:08:31.270Z,15.10
2022-09-30T10:13:57.836Z,15.20
2022-09-30T10:19:23.041Z,15.46
2022-09-30T10:24:46.111Z,15.76
2022-09-30T10:30:11.057Z,16.01
2022-09-30T10:35:34.158Z,15.81
2022-09-30T10:40:57.790Z,15.64
2022-09-30T10:46:27.749Z,15.77
2022-09-30T10:51:51.269Z,15.96
2022-09-30T10:57:16.963Z,16.11
2022-09-30T11:02:48.248Z,16.30
2022-09-30T11:08:16.456Z,16.63
2022-09-30T11:13:44.055Z,16.71
2022-09-30T11:19:11.798Z,16.90
2022-09-30T11:24:38.416Z,16.61
2022-09-30T11:30:05.217Z,16.55
2022-09-30T11:35:42.978Z,16.60
2022-09-30T11:41:09.917Z,16.66
2022-09-30T11:46:45.400Z,17.30
2022-09-30T11:52:17.080Z,17.46
2022-09-30T11:57:46.634Z,17.02
2022-09-30T12:03:14.428Z,16.76
2022-09-30T12:08:42.162Z,17.12
2022-09-30T12:14:07.447Z,17.11
2022-09-30T12:19:33.771Z,16.96
2022-09-30T12:24:58.192Z,16.96
2022-09-30T12:30:23.947Z,17.21
2022-09-30T12:36:09.112Z,17.20
2022-09-30T12:41:42.711Z,17.39
2022-09-30T12:47:15.747Z,16.91
2022-09-30T12:52:39.356Z,17.07
2022-09-30T12:58:05.117Z,17.18
2022-09-30T13:03:28.208Z,17.29
2022-09-30T13:09:19.153Z,17.35
2022-09-30T13:14:44.253Z,17.40
2022-09-30T13:20:40.583Z,17.35
2022-09-30T13:26:04.116Z,17.30
2022-09-30T13:31:32.237Z,17.36
2022-09-30T13:36:59.779Z,17.37
2022-09-30T13:42:29.907Z,17.21
2022-09-30T13:48:03.106Z,16.87
2022-09-30T13:53:35.596Z,16.90
2022-09-30T13:59:18.931Z,16.80
2022-09-30T14:05:00.638Z,17.00
2022-09-30T14:10:35.956Z,17.10
2022-09-30T14:16:20.350Z,17.25
2022-09-30T14:21:46.253Z,16.99
2022-09-30T14:27:26.144Z,17.12
2022-09-30T14:32:50.433Z,17.01
2022-09-30T14:38:19.034Z,17.28
2022-09-30T14:43:43.831Z,17.33
2022-09-30T14:49:09.529Z,17.34
2022-09-30T14:54:36.432Z,17.34
2022-09-30T15:00:23.756Z,17.44
2022-09-30T15:05:48.444Z,17.25
2022-09-30T15:11:21.300Z,17.17
2022-09-30T15:16:48.560Z,17.17
2022-09-30T15:22:16.485Z,17.18
2022-09-30T15:27:51.018Z,16.96
2022-09-30T15:33:29.221Z,16.72
2022-09-30T15:39:01.628Z,16.69
2022-09-30T15:44:41.933Z,16.56
2022-09-30T15:50:24.051Z,16.38
2022-09-30T15:56:10.671Z,16.33
2022-09-30T16:01:39.012Z,15.98
2022-09-30T16:07:09.428Z,15.85
2022-09-30T16:12:36.014Z,15.80
2022-09-30T16:18:06.485Z,15.59
2022-09-30T16:23:32.834Z,15.60
2022-09-30T16:28:56.002Z,15.67
2022-09-30T16:34:23.817Z,15.36
2022-09-30T16:39:47.486Z,15.41
2022-09-30T16:45:12.998Z,15.52
2022-09-30T16:50:40.326Z,15.42
2022-09-30T16:56:03.397Z,15.36
2022-09-30T17:01:26.953Z,15.33
2022-09-30T17:06:51.437Z,15.34
2022-09-30T17:12:14.654Z,15.49
2022-09-30T17:17:37.707Z,15.46
2022-09-30T17:23:07.327Z,15.16
2022-09-30T17:28:34.302Z,15.13
2022-09-30T17:33:57.629Z,15.01
2022-09-30T17:39:22.100Z,15.15
2022-09-30T17:44:45.187Z,15.12
2022-09-30T17:50:10.054Z,15.07
2022-09-30T17:55:34.728Z,15.03
2022-09-30T18:00:59.400Z,15.07
2022-09-30T18:06:22.557Z,15.13
2022-09-30T18:11:47.107Z,15.12
2022-09-30T18:17:10.394Z,15.07
2022-09-30T18:22:33.404Z,15.12
2022-09-30T18:28:00.278Z,15.00
2022-09-30T18:33:23.427Z,14.87
2022-09-30T18:38:46.549Z,14.81
2022-09-30T18:44:11.140Z,14.83
2022-09-30T18:49:34.156Z,14.75
2022-09-30T18:54:57.254Z,14.81
2022-09-30T19:00:23.726Z,14.83
2022-09-30T19:05:46.718Z,14.84
2022-09-30T19:11:13.900Z,14.79
2022-09-30T19:16:39.032Z,14.82
2022-09-30T19:22:02.964Z,14.73
2022-09-30T19:27:27.006Z,14.75
2022-09-30T19:32:59.151Z,14.67
2022-09-30T19:38:33.934Z,14.74
2022-09-30T19:44:01.992Z,14.70
2022-09-30T19:49:26.470Z,14.62
2022-09-30T19:54:50.758Z,14.53
2022-09-30T20:00:14.299Z,14.48
2022-09-30T20:05:39.013Z,14.51
2022-09-30T20:11:03.207Z,14.47
2022-09-30T20:16:26.417Z,14.40
2022-09-30T20:21:51.050Z,14.44
2022-09-30T20:27:14.044Z,14.33
2022-09-30T20:32:39.470Z,14.35
2022-09-30T20:38:03.866Z,14.21
2022-09-30T20:43:29.961Z,14.18
2022-09-30T20:48:54.811Z,13.99
2022-09-30T20:54:22.496Z,13.60
2022-09-30T20:59:46.557Z,13.32
2022-09-30T21:05:10.277Z,13.14
2022-09-30T21:10:35.896Z,12.86
2022-09-30T21:16:01.627Z,12.93
2022-09-30T21:21:26.746Z,12.81
2022-09-30T21:26:51.059Z,12.75
2022-09-30T21:32:15.328Z,12.62
2022-09-30T21:37:38.380Z,12.57
2022-09-30T21:43:02.776Z,12.52
2022-09-30T21:48:25.813Z,12.39
2022-09-30T21:53:49.874Z,12.33
2022-09-30T21:59:14.349Z,12.11
2022-09-30T22:04:38.902Z,11.88
2022-09-30T22:10:02.032Z,11.81
2022-09-30T22:15:26.543Z,11.80
2022-09-30T22:20:49.566Z,11.88
2022-09-30T22:26:14.581Z,11.82
2022-09-30T22:31:39.725Z,11.75
2022-09-30T22:37:20.264Z,11.60
2022-09-30T22:42:43.241Z,11.60
2022-09-30T22:48:07.675Z,11.59
2022-09-30T22:53:30.662Z,11.64
2022-09-30T22:58:53.816Z,11.58
2022-09-30T23:04:18.887Z,11.50
2022-09-30T23:09:42.044Z,11.39
2022-09-30T23:15:07.378Z,11.36
2022-09-30T23:20:31.701Z,11.36
2022-09-30T23:26:01.834Z,11.43
2022-09-30T23:31:25.089Z,11.30
2022-09-30T23:36:49.593Z,11.23
2022-09-30T23:42:12.573Z,11.25
2022-09-30T23:47:35.549Z,11.34
2022-09-30T23:53:00.091Z,11.40
2022-09-30T23:58:23.273Z,11.36
